sensor_id;sensor_type;location;lat;lon;timestamp;P1;durP1;ratioP1;P2;durP2;ratioP2
75682;SDS011;64295;44.772;39.872;2023-04-28T00:00:28;4.47;;;2.20;;
75682;SDS011;64295;44.772;39.872;2023-04-28T00:02:54;7.25;;;2.05;;
75682;SDS011;64295;44.772;39.872;2023-04-28T00:05:20;2.70;;;1.52;;
75682;SDS011;64295;44.772;39.872;2023-04-28T00:07:47;5.75;;;2.72;;
75682;SDS011;64295;44.772;39.872;2023-04-28T00:10:13;4.28;;;2.60;;
75682;SDS011;64295;44.772;39.872;2023-04-28T00:12:39;2.47;;;1.67;;
75682;SDS011;64295;44.772;39.872;2023-04-28T00:15:06;2.67;;;1.70;;
75682;SDS011;64295;44.772;39.872;2023-04-28T00:17:32;2.67;;;1.50;;
75682;SDS011;64295;44.772;39.872;2023-04-28T00:19:58;5.60;;;1.50;;
75682;SDS011;64295;44.772;39.872;2023-04-28T00:22:24;5.95;;;2.70;;
75682;SDS011;64295;44.772;39.872;2023-04-28T00:24:50;5.18;;;2.33;;
75682;SDS011;64295;44.772;39.872;2023-04-28T00:27:16;3.75;;;1.90;;
75682;SDS011;64295;44.772;39.872;2023-04-28T00:29:41;3.15;;;2.00;;
75682;SDS011;64295;44.772;39.872;2023-04-28T00:32:07;1.42;;;1.17;;
75682;SDS011;64295;44.772;39.872;2023-04-28T00:34:33;1.65;;;1.38;;
75682;SDS011;64295;44.772;39.872;2023-04-28T00:37:02;2.72;;;1.67;;
75682;SDS011;64295;44.772;39.872;2023-04-28T00:39:28;2.13;;;1.73;;
75682;SDS011;64295;44.772;39.872;2023-04-28T00:41:54;2.28;;;1.58;;
75682;SDS011;64295;44.772;39.872;2023-04-28T00:44:20;2.25;;;1.40;;
75682;SDS011;64295;44.772;39.872;2023-04-28T00:46:46;1.33;;;1.23;;
75682;SDS011;64295;44.772;39.872;2023-04-28T00:49:14;1.48;;;1.13;;
75682;SDS011;64295;44.772;39.872;2023-04-28T00:51:40;1.95;;;1.20;;
75682;SDS011;64295;44.772;39.872;2023-04-28T00:54:06;2.33;;;0.75;;
75682;SDS011;64295;44.772;39.872;2023-04-28T00:56:32;0.85;;;0.57;;
75682;SDS011;64295;44.772;39.872;2023-04-28T00:58:58;1.50;;;1.15;;
75682;SDS011;64295;44.772;39.872;2023-04-28T01:01:24;1.55;;;0.85;;
75682;SDS011;64295;44.772;39.872;2023-04-28T01:03:51;3.85;;;1.20;;
75682;SDS011;64295;44.772;39.872;2023-04-28T01:06:17;1.33;;;1.15;;
75682;SDS011;64295;44.772;39.872;2023-04-28T01:08:49;1.20;;;0.85;;
75682;SDS011;64295;44.772;39.872;2023-04-28T01:11:16;2.13;;;1.13;;
75682;SDS011;64295;44.772;39.872;2023-04-28T01:13:58;1.52;;;1.10;;
75682;SDS011;64295;44.772;39.872;2023-04-28T01:16:26;4.25;;;1.17;;
75682;SDS011;64295;44.772;39.872;2023-04-28T01:18:53;5.45;;;1.60;;
75682;SDS011;64295;44.772;39.872;2023-04-28T01:23:59;2.03;;;1.50;;
75682;SDS011;64295;44.772;39.872;2023-04-28T01:26:26;4.53;;;1.80;;
75682;SDS011;64295;44.772;39.872;2023-04-28T01:28:52;3.10;;;1.35;;
75682;SDS011;64295;44.772;39.872;2023-04-28T01:31:18;3.88;;;0.90;;
75682;SDS011;64295;44.772;39.872;2023-04-28T01:33:44;2.83;;;1.60;;
75682;SDS011;64295;44.772;39.872;2023-04-28T01:36:10;1.70;;;1.30;;
75682;SDS011;64295;44.772;39.872;2023-04-28T01:38:36;1.55;;;1.25;;
75682;SDS011;64295;44.772;39.872;2023-04-28T01:41:02;2.45;;;1.38;;
75682;SDS011;64295;44.772;39.872;2023-04-28T01:43:30;2.50;;;1.50;;
75682;SDS011;64295;44.772;39.872;2023-04-28T01:45:57;2.60;;;1.00;;
75682;SDS011;64295;44.772;39.872;2023-04-28T01:48:23;1.73;;;1.30;;
75682;SDS011;64295;44.772;39.872;2023-04-28T01:50:48;1.70;;;0.90;;
75682;SDS011;64295;44.772;39.872;2023-04-28T01:53:14;1.73;;;1.13;;
75682;SDS011;64295;44.772;39.872;2023-04-28T01:55:45;2.50;;;1.48;;
75682;SDS011;64295;44.772;39.872;2023-04-28T01:58:12;2.67;;;1.50;;
75682;SDS011;64295;44.772;39.872;2023-04-28T02:00:38;1.38;;;1.15;;
75682;SDS011;64295;44.772;39.872;2023-04-28T02:03:04;1.92;;;1.25;;
75682;SDS011;64295;44.772;39.872;2023-04-28T02:05:33;3.78;;;1.35;;
75682;SDS011;64295;44.772;39.872;2023-04-28T02:07:59;2.72;;;1.45;;
75682;SDS011;64295;44.772;39.872;2023-04-28T02:10:25;1.77;;;1.52;;
75682;SDS011;64295;44.772;39.872;2023-04-28T02:12:51;1.95;;;1.30;;
75682;SDS011;64295;44.772;39.872;2023-04-28T02:15:18;3.47;;;1.45;;
75682;SDS011;64295;44.772;39.872;2023-04-28T02:17:45;1.60;;;1.15;;
75682;SDS011;64295;44.772;39.872;2023-04-28T02:20:11;1.60;;;1.25;;
75682;SDS011;64295;44.772;39.872;2023-04-28T02:22:39;1.83;;;1.30;;
75682;SDS011;64295;44.772;39.872;2023-04-28T02:25:05;2.15;;;1.55;;
75682;SDS011;64295;44.772;39.872;2023-04-28T02:27:35;3.60;;;1.67;;
75682;SDS011;64295;44.772;39.872;2023-04-28T02:30:03;2.13;;;1.17;;
75682;SDS011;64295;44.772;39.872;2023-04-28T02:32:29;1.63;;;0.98;;
75682;SDS011;64295;44.772;39.872;2023-04-28T02:34:55;2.47;;;1.33;;
75682;SDS011;64295;44.772;39.872;2023-04-28T02:37:22;3.85;;;2.20;;
75682;SDS011;64295;44.772;39.872;2023-04-28T02:39:49;1.67;;;1.02;;
75682;SDS011;64295;44.772;39.872;2023-04-28T02:42:15;1.90;;;1.20;;
75682;SDS011;64295;44.772;39.872;2023-04-28T02:44:41;3.13;;;1.25;;
75682;SDS011;64295;44.772;39.872;2023-04-28T02:47:07;2.10;;;1.90;;
75682;SDS011;64295;44.772;39.872;2023-04-28T02:49:33;2.25;;;1.67;;
75682;SDS011;64295;44.772;39.872;2023-04-28T02:51:59;4.03;;;1.95;;
75682;SDS011;64295;44.772;39.872;2023-04-28T02:54:25;2.22;;;1.58;;
75682;SDS011;64295;44.772;39.872;2023-04-28T02:56:52;3.92;;;2.28;;
75682;SDS011;64295;44.772;39.872;2023-04-28T02:59:19;2.55;;;1.08;;
75682;SDS011;64295;44.772;39.872;2023-04-28T03:01:46;2.05;;;1.58;;
75682;SDS011;64295;44.772;39.872;2023-04-28T03:04:12;0.80;;;0.52;;
75682;SDS011;64295;44.772;39.872;2023-04-28T03:06:39;2.60;;;1.42;;
75682;SDS011;64295;44.772;39.872;2023-04-28T03:09:05;2.17;;;1.55;;
75682;SDS011;64295;44.772;39.872;2023-04-28T03:11:32;2.70;;;1.83;;
75682;SDS011;64295;44.772;39.872;2023-04-28T03:13:59;1.77;;;1.55;;
75682;SDS011;64295;44.772;39.872;2023-04-28T03:16:25;5.03;;;1.98;;
75682;SDS011;64295;44.772;39.872;2023-04-28T03:18:52;2.58;;;1.52;;
75682;SDS011;64295;44.772;39.872;2023-04-28T03:21:18;2.08;;;1.23;;
75682;SDS011;64295;44.772;39.872;2023-04-28T03:23:44;3.65;;;1.63;;
75682;SDS011;64295;44.772;39.872;2023-04-28T03:26:10;3.22;;;1.88;;
75682;SDS011;64295;44.772;39.872;2023-04-28T03:28:36;4.50;;;1.25;;
75682;SDS011;64295;44.772;39.872;2023-04-28T03:31:02;2.72;;;1.05;;
75682;SDS011;64295;44.772;39.872;2023-04-28T03:33:29;2.17;;;1.40;;
75682;SDS011;64295;44.772;39.872;2023-04-28T03:35:56;4.13;;;1.95;;
75682;SDS011;64295;44.772;39.872;2023-04-28T03:38:22;4.15;;;1.45;;
75682;SDS011;64295;44.772;39.872;2023-04-28T03:40:48;4.90;;;2.13;;
75682;SDS011;64295;44.772;39.872;2023-04-28T03:43:33;3.55;;;1.95;;
75682;SDS011;64295;44.772;39.872;2023-04-28T03:46:18;3.67;;;1.27;;
75682;SDS011;64295;44.772;39.872;2023-04-28T03:48:45;7.78;;;2.40;;
75682;SDS011;64295;44.772;39.872;2023-04-28T03:51:11;4.35;;;2.38;;
75682;SDS011;64295;44.772;39.872;2023-04-28T03:53:37;2.55;;;1.40;;
75682;SDS011;64295;44.772;39.872;2023-04-28T03:56:03;2.20;;;1.42;;
75682;SDS011;64295;44.772;39.872;2023-04-28T03:58:29;2.67;;;2.00;;
75682;SDS011;64295;44.772;39.872;2023-04-28T04:00:55;3.10;;;2.30;;
75682;SDS011;64295;44.772;39.872;2023-04-28T04:03:21;5.05;;;3.08;;
75682;SDS011;64295;44.772;39.872;2023-04-28T04:05:51;3.60;;;2.28;;
75682;SDS011;64295;44.772;39.872;2023-04-28T04:08:18;4.88;;;2.40;;
75682;SDS011;64295;44.772;39.872;2023-04-28T04:10:44;3.03;;;1.90;;
75682;SDS011;64295;44.772;39.872;2023-04-28T04:13:11;2.72;;;1.70;;
75682;SDS011;64295;44.772;39.872;2023-04-28T04:15:36;4.53;;;1.85;;
75682;SDS011;64295;44.772;39.872;2023-04-28T04:18:03;3.70;;;1.63;;
75682;SDS011;64295;44.772;39.872;2023-04-28T04:20:43;2.60;;;1.42;;
75682;SDS011;64295;44.772;39.872;2023-04-28T04:23:09;1.60;;;1.10;;
75682;SDS011;64295;44.772;39.872;2023-04-28T04:25:35;3.15;;;2.00;;
75682;SDS011;64295;44.772;39.872;2023-04-28T04:28:01;3.78;;;1.40;;
75682;SDS011;64295;44.772;39.872;2023-04-28T04:30:28;3.25;;;2.17;;
75682;SDS011;64295;44.772;39.872;2023-04-28T04:32:53;3.75;;;1.98;;
75682;SDS011;64295;44.772;39.872;2023-04-28T04:35:20;2.58;;;1.30;;
75682;SDS011;64295;44.772;39.872;2023-04-28T04:37:46;2.53;;;1.65;;
75682;SDS011;64295;44.772;39.872;2023-04-28T04:40:11;2.03;;;1.33;;
75682;SDS011;64295;44.772;39.872;2023-04-28T04:42:45;2.25;;;1.40;;
75682;SDS011;64295;44.772;39.872;2023-04-28T04:45:15;5.30;;;1.73;;
75682;SDS011;64295;44.772;39.872;2023-04-28T04:47:42;3.50;;;1.70;;
75682;SDS011;64295;44.772;39.872;2023-04-28T04:50:09;3.03;;;1.60;;
75682;SDS011;64295;44.772;39.872;2023-04-28T04:52:35;2.65;;;2.22;;
75682;SDS011;64295;44.772;39.872;2023-04-28T04:55:02;5.05;;;2.15;;
75682;SDS011;64295;44.772;39.872;2023-04-28T04:57:28;2.92;;;1.92;;
75682;SDS011;64295;44.772;39.872;2023-04-28T05:00:14;5.40;;;1.85;;
75682;SDS011;64295;44.772;39.872;2023-04-28T05:02:42;4.63;;;1.77;;
75682;SDS011;64295;44.772;39.872;2023-04-28T05:05:08;4.35;;;2.42;;
75682;SDS011;64295;44.772;39.872;2023-04-28T05:07:35;3.55;;;1.95;;
75682;SDS011;64295;44.772;39.872;2023-04-28T05:10:01;5.68;;;4.32;;
75682;SDS011;64295;44.772;39.872;2023-04-28T05:12:28;11.75;;;2.65;;
75682;SDS011;64295;44.772;39.872;2023-04-28T05:14:54;2.75;;;2.50;;
75682;SDS011;64295;44.772;39.872;2023-04-28T05:17:20;3.78;;;2.03;;
75682;SDS011;64295;44.772;39.872;2023-04-28T05:19:46;4.75;;;2.30;;
75682;SDS011;64295;44.772;39.872;2023-04-28T05:22:13;6.03;;;2.83;;
75682;SDS011;64295;44.772;39.872;2023-04-28T05:24:39;3.22;;;2.03;;
75682;SDS011;64295;44.772;39.872;2023-04-28T05:27:05;6.15;;;2.10;;
75682;SDS011;64295;44.772;39.872;2023-04-28T05:29:33;3.30;;;2.22;;
75682;SDS011;64295;44.772;39.872;2023-04-28T05:31:58;1.98;;;1.55;;
75682;SDS011;64295;44.772;39.872;2023-04-28T05:34:24;7.00;;;2.70;;
75682;SDS011;64295;44.772;39.872;2023-04-28T05:36:51;2.83;;;1.98;;
75682;SDS011;64295;44.772;39.872;2023-04-28T05:39:19;2.47;;;1.73;;
75682;SDS011;64295;44.772;39.872;2023-04-28T05:41:45;3.20;;;1.60;;
75682;SDS011;64295;44.772;39.872;2023-04-28T05:44:11;4.07;;;1.70;;
75682;SDS011;64295;44.772;39.872;2023-04-28T05:46:38;2.35;;;1.42;;
75682;SDS011;64295;44.772;39.872;2023-04-28T05:49:04;2.53;;;1.52;;
75682;SDS011;64295;44.772;39.872;2023-04-28T05:51:34;3.17;;;2.03;;
75682;SDS011;64295;44.772;39.872;2023-04-28T05:54:01;2.58;;;1.90;;
75682;SDS011;64295;44.772;39.872;2023-04-28T05:56:28;4.18;;;2.15;;
75682;SDS011;64295;44.772;39.872;2023-04-28T05:58:55;1.98;;;1.05;;
75682;SDS011;64295;44.772;39.872;2023-04-28T06:01:22;2.33;;;1.50;;
75682;SDS011;64295;44.772;39.872;2023-04-28T06:03:48;2.97;;;1.70;;
75682;SDS011;64295;44.772;39.872;2023-04-28T06:06:15;7.20;;;3.35;;
75682;SDS011;64295;44.772;39.872;2023-04-28T06:08:41;4.32;;;2.80;;
75682;SDS011;64295;44.772;39.872;2023-04-28T06:11:07;3.55;;;2.90;;
75682;SDS011;64295;44.772;39.872;2023-04-28T06:13:34;5.00;;;2.70;;
75682;SDS011;64295;44.772;39.872;2023-04-28T06:16:01;2.25;;;1.77;;
75682;SDS011;64295;44.772;39.872;2023-04-28T06:18:28;2.60;;;2.13;;
75682;SDS011;64295;44.772;39.872;2023-04-28T06:20:59;3.88;;;2.45;;
75682;SDS011;64295;44.772;39.872;2023-04-28T06:23:25;5.53;;;2.13;;
75682;SDS011;64295;44.772;39.872;2023-04-28T06:25:52;4.30;;;2.45;;
75682;SDS011;64295;44.772;39.872;2023-04-28T06:28:18;10.95;;;2.75;;
75682;SDS011;64295;44.772;39.872;2023-04-28T06:30:44;7.80;;;2.42;;
75682;SDS011;64295;44.772;39.872;2023-04-28T06:33:10;4.30;;;3.15;;
75682;SDS011;64295;44.772;39.872;2023-04-28T06:35:47;4.72;;;2.72;;
75682;SDS011;64295;44.772;39.872;2023-04-28T06:38:14;10.30;;;2.95;;
75682;SDS011;64295;44.772;39.872;2023-04-28T06:40:40;4.90;;;2.47;;
75682;SDS011;64295;44.772;39.872;2023-04-28T06:43:07;6.85;;;2.97;;
75682;SDS011;64295;44.772;39.872;2023-04-28T06:45:40;5.03;;;3.30;;
75682;SDS011;64295;44.772;39.872;2023-04-28T06:48:07;3.13;;;2.50;;
75682;SDS011;64295;44.772;39.872;2023-04-28T06:50:37;9.32;;;6.00;;
75682;SDS011;64295;44.772;39.872;2023-04-28T06:53:05;21.50;;;9.48;;
75682;SDS011;64295;44.772;39.872;2023-04-28T06:55:32;12.80;;;6.13;;
75682;SDS011;64295;44.772;39.872;2023-04-28T06:57:58;3.33;;;2.22;;
75682;SDS011;64295;44.772;39.872;2023-04-28T07:00:24;4.35;;;2.22;;
75682;SDS011;64295;44.772;39.872;2023-04-28T07:02:50;3.13;;;2.30;;
75682;SDS011;64295;44.772;39.872;2023-04-28T07:05:16;3.03;;;2.20;;
75682;SDS011;64295;44.772;39.872;2023-04-28T07:07:42;8.00;;;3.50;;
75682;SDS011;64295;44.772;39.872;2023-04-28T07:10:08;5.20;;;2.20;;
75682;SDS011;64295;44.772;39.872;2023-04-28T07:12:35;4.18;;;2.20;;
75682;SDS011;64295;44.772;39.872;2023-04-28T07:15:01;2.35;;;1.92;;
75682;SDS011;64295;44.772;39.872;2023-04-28T07:17:27;2.25;;;1.75;;
75682;SDS011;64295;44.772;39.872;2023-04-28T07:19:53;1.95;;;1.65;;
75682;SDS011;64295;44.772;39.872;2023-04-28T07:22:19;3.47;;;2.17;;
75682;SDS011;64295;44.772;39.872;2023-04-28T07:24:44;4.07;;;2.22;;
75682;SDS011;64295;44.772;39.872;2023-04-28T07:27:10;3.88;;;1.85;;
75682;SDS011;64295;44.772;39.872;2023-04-28T07:29:36;3.25;;;1.90;;
75682;SDS011;64295;44.772;39.872;2023-04-28T07:32:02;2.28;;;1.58;;
75682;SDS011;64295;44.772;39.872;2023-04-28T07:34:37;2.97;;;1.80;;
75682;SDS011;64295;44.772;39.872;2023-04-28T07:37:03;3.85;;;2.45;;
75682;SDS011;64295;44.772;39.872;2023-04-28T07:39:30;2.40;;;1.80;;
75682;SDS011;64295;44.772;39.872;2023-04-28T07:41:56;2.00;;;1.50;;
75682;SDS011;64295;44.772;39.872;2023-04-28T07:44:23;3.97;;;1.48;;
75682;SDS011;64295;44.772;39.872;2023-04-28T07:46:49;6.55;;;1.83;;
75682;SDS011;64295;44.772;39.872;2023-04-28T07:49:17;2.88;;;1.50;;
75682;SDS011;64295;44.772;39.872;2023-04-28T07:51:43;4.30;;;1.60;;
75682;SDS011;64295;44.772;39.872;2023-04-28T07:54:09;2.95;;;1.73;;
75682;SDS011;64295;44.772;39.872;2023-04-28T07:56:35;3.70;;;2.38;;
75682;SDS011;64295;44.772;39.872;2023-04-28T07:59:00;2.05;;;1.38;;
75682;SDS011;64295;44.772;39.872;2023-04-28T08:01:26;2.35;;;1.65;;
75682;SDS011;64295;44.772;39.872;2023-04-28T08:03:52;2.67;;;1.85;;
75682;SDS011;64295;44.772;39.872;2023-04-28T08:06:18;2.80;;;2.05;;
75682;SDS011;64295;44.772;39.872;2023-04-28T08:08:44;2.97;;;1.70;;
75682;SDS011;64295;44.772;39.872;2023-04-28T08:11:10;2.35;;;1.38;;
75682;SDS011;64295;44.772;39.872;2023-04-28T08:13:36;1.75;;;1.00;;
75682;SDS011;64295;44.772;39.872;2023-04-28T08:16:02;3.00;;;1.60;;
75682;SDS011;64295;44.772;39.872;2023-04-28T08:18:28;8.60;;;1.45;;
75682;SDS011;64295;44.772;39.872;2023-04-28T08:20:54;1.92;;;1.50;;
75682;SDS011;64295;44.772;39.872;2023-04-28T08:23:20;2.15;;;1.88;;
75682;SDS011;64295;44.772;39.872;2023-04-28T08:25:46;4.05;;;2.53;;
75682;SDS011;64295;44.772;39.872;2023-04-28T08:28:12;3.67;;;1.30;;
75682;SDS011;64295;44.772;39.872;2023-04-28T08:30:38;2.30;;;1.35;;
75682;SDS011;64295;44.772;39.872;2023-04-28T08:33:04;2.45;;;1.48;;
75682;SDS011;64295;44.772;39.872;2023-04-28T08:35:30;1.98;;;1.40;;
75682;SDS011;64295;44.772;39.872;2023-04-28T08:37:56;2.70;;;1.58;;
75682;SDS011;64295;44.772;39.872;2023-04-28T08:40:22;6.30;;;1.42;;
75682;SDS011;64295;44.772;39.872;2023-04-28T08:42:49;2.13;;;1.85;;
75682;SDS011;64295;44.772;39.872;2023-04-28T08:45:15;1.67;;;1.55;;
75682;SDS011;64295;44.772;39.872;2023-04-28T08:47:41;3.05;;;1.80;;
75682;SDS011;64295;44.772;39.872;2023-04-28T08:50:12;4.22;;;1.67;;
75682;SDS011;64295;44.772;39.872;2023-04-28T08:52:40;2.92;;;1.50;;
75682;SDS011;64295;44.772;39.872;2023-04-28T08:57:36;1.50;;;1.33;;
75682;SDS011;64295;44.772;39.872;2023-04-28T09:00:04;3.45;;;1.70;;
75682;SDS011;64295;44.772;39.872;2023-04-28T09:02:30;3.10;;;1.45;;
75682;SDS011;64295;44.772;39.872;2023-04-28T09:04:57;1.63;;;1.10;;
75682;SDS011;64295;44.772;39.872;2023-04-28T09:07:23;1.80;;;1.42;;
75682;SDS011;64295;44.772;39.872;2023-04-28T09:09:49;2.08;;;1.10;;
75682;SDS011;64295;44.772;39.872;2023-04-28T09:12:14;2.40;;;1.80;;
75682;SDS011;64295;44.772;39.872;2023-04-28T09:14:42;2.90;;;2.20;;
75682;SDS011;64295;44.772;39.872;2023-04-28T09:17:09;2.25;;;1.42;;
75682;SDS011;64295;44.772;39.872;2023-04-28T09:22:03;2.08;;;1.23;;
75682;SDS011;64295;44.772;39.872;2023-04-28T09:24:34;2.53;;;1.80;;
75682;SDS011;64295;44.772;39.872;2023-04-28T09:27:01;2.53;;;1.40;;
75682;SDS011;64295;44.772;39.872;2023-04-28T09:29:28;1.90;;;1.48;;
75682;SDS011;64295;44.772;39.872;2023-04-28T09:32:11;2.55;;;1.50;;
75682;SDS011;64295;44.772;39.872;2023-04-28T09:34:42;1.77;;;1.20;;
75682;SDS011;64295;44.772;39.872;2023-04-28T09:37:22;3.00;;;1.83;;
75682;SDS011;64295;44.772;39.872;2023-04-28T09:39:51;2.20;;;1.02;;
75682;SDS011;64295;44.772;39.872;2023-04-28T09:42:29;1.38;;;1.10;;
75682;SDS011;64295;44.772;39.872;2023-04-28T09:47:27;2.50;;;1.50;;
75682;SDS011;64295;44.772;39.872;2023-04-28T09:49:54;2.05;;;1.55;;
75682;SDS011;64295;44.772;39.872;2023-04-28T09:52:21;3.13;;;1.20;;
75682;SDS011;64295;44.772;39.872;2023-04-28T09:54:53;2.80;;;1.20;;
75682;SDS011;64295;44.772;39.872;2023-04-28T09:57:20;3.63;;;1.33;;
75682;SDS011;64295;44.772;39.872;2023-04-28T09:59:48;1.90;;;1.30;;
75682;SDS011;64295;44.772;39.872;2023-04-28T10:02:15;1.13;;;1.02;;
75682;SDS011;64295;44.772;39.872;2023-04-28T10:04:46;1.75;;;1.20;;
75682;SDS011;64295;44.772;39.872;2023-04-28T10:07:14;2.30;;;1.50;;
75682;SDS011;64295;44.772;39.872;2023-04-28T10:09:42;1.85;;;0.90;;
75682;SDS011;64295;44.772;39.872;2023-04-28T10:12:09;2.13;;;1.42;;
75682;SDS011;64295;44.772;39.872;2023-04-28T10:14:36;4.72;;;1.65;;
75682;SDS011;64295;44.772;39.872;2023-04-28T10:17:02;2.67;;;1.55;;
75682;SDS011;64295;44.772;39.872;2023-04-28T10:19:31;3.17;;;1.60;;
75682;SDS011;64295;44.772;39.872;2023-04-28T10:25:07;1.48;;;1.15;;
75682;SDS011;64295;44.772;39.872;2023-04-28T10:27:45;1.80;;;1.30;;
75682;SDS011;64295;44.772;39.872;2023-04-28T10:30:13;2.67;;;1.73;;
75682;SDS011;64295;44.772;39.872;2023-04-28T10:32:41;1.90;;;1.52;;
75682;SDS011;64295;44.772;39.872;2023-04-28T10:38:01;4.18;;;1.63;;
75682;SDS011;64295;44.772;39.872;2023-04-28T10:40:36;2.22;;;1.35;;
75682;SDS011;64295;44.772;39.872;2023-04-28T10:43:09;6.30;;;1.63;;
75682;SDS011;64295;44.772;39.872;2023-04-28T10:54:13;2.47;;;1.65;;
75682;SDS011;64295;44.772;39.872;2023-04-28T10:56:33;3.80;;;2.45;;
75682;SDS011;64295;44.772;39.872;2023-04-28T10:59:00;2.55;;;1.80;;
75682;SDS011;64295;44.772;39.872;2023-04-28T11:01:54;4.03;;;2.45;;
75682;SDS011;64295;44.772;39.872;2023-04-28T11:04:21;2.17;;;1.63;;
75682;SDS011;64295;44.772;39.872;2023-04-28T11:07:10;5.15;;;1.90;;
75682;SDS011;64295;44.772;39.872;2023-04-28T11:12:06;4.20;;;1.83;;
75682;SDS011;64295;44.772;39.872;2023-04-28T11:14:36;1.50;;;1.38;;
75682;SDS011;64295;44.772;39.872;2023-04-28T11:17:05;2.58;;;1.58;;
75682;SDS011;64295;44.772;39.872;2023-04-28T11:22:06;3.20;;;1.35;;
75682;SDS011;64295;44.772;39.872;2023-04-28T11:25:03;3.08;;;1.42;;
75682;SDS011;64295;44.772;39.872;2023-04-28T11:27:29;1.88;;;1.40;;
75682;SDS011;64295;44.772;39.872;2023-04-28T11:29:56;3.13;;;1.20;;
75682;SDS011;64295;44.772;39.872;2023-04-28T11:32:27;2.08;;;1.42;;
75682;SDS011;64295;44.772;39.872;2023-04-28T11:34:54;2.38;;;1.30;;
75682;SDS011;64295;44.772;39.872;2023-04-28T11:37:20;3.22;;;1.17;;
75682;SDS011;64295;44.772;39.872;2023-04-28T11:39:47;3.85;;;1.67;;
75682;SDS011;64295;44.772;39.872;2023-04-28T11:42:15;2.40;;;1.40;;
75682;SDS011;64295;44.772;39.872;2023-04-28T11:44:41;2.22;;;1.20;;
75682;SDS011;64295;44.772;39.872;2023-04-28T11:47:30;5.10;;;1.83;;
75682;SDS011;64295;44.772;39.872;2023-04-28T11:49:57;2.90;;;1.42;;
75682;SDS011;64295;44.772;39.872;2023-04-28T11:52:23;3.05;;;1.48;;
75682;SDS011;64295;44.772;39.872;2023-04-28T11:54:56;3.05;;;1.98;;
75682;SDS011;64295;44.772;39.872;2023-04-28T11:57:26;3.03;;;1.98;;
75682;SDS011;64295;44.772;39.872;2023-04-28T12:00:14;2.70;;;1.65;;
75682;SDS011;64295;44.772;39.872;2023-04-28T12:02:46;3.95;;;2.85;;
75682;SDS011;64295;44.772;39.872;2023-04-28T12:05:12;4.78;;;3.00;;
75682;SDS011;64295;44.772;39.872;2023-04-28T12:07:40;10.20;;;2.90;;
75682;SDS011;64295;44.772;39.872;2023-04-28T12:10:11;6.15;;;2.13;;
75682;SDS011;64295;44.772;39.872;2023-04-28T12:12:56;2.90;;;2.00;;
75682;SDS011;64295;44.772;39.872;2023-04-28T12:15:22;6.22;;;2.05;;
75682;SDS011;64295;44.772;39.872;2023-04-28T12:17:49;4.70;;;2.50;;
75682;SDS011;64295;44.772;39.872;2023-04-28T12:20:34;4.90;;;2.38;;
75682;SDS011;64295;44.772;39.872;2023-04-28T12:23:03;4.93;;;2.47;;
75682;SDS011;64295;44.772;39.872;2023-04-28T12:25:30;2.63;;;2.40;;
75682;SDS011;64295;44.772;39.872;2023-04-28T12:28:03;4.50;;;1.77;;
75682;SDS011;64295;44.772;39.872;2023-04-28T12:32:58;3.83;;;1.88;;
75682;SDS011;64295;44.772;39.872;2023-04-28T12:35:25;3.10;;;1.63;;
75682;SDS011;64295;44.772;39.872;2023-04-28T12:37:52;2.47;;;1.60;;
75682;SDS011;64295;44.772;39.872;2023-04-28T12:40:20;2.30;;;1.80;;
75682;SDS011;64295;44.772;39.872;2023-04-28T12:45:59;1.77;;;1.40;;
75682;SDS011;64295;44.772;39.872;2023-04-28T12:48:33;2.38;;;1.30;;
75682;SDS011;64295;44.772;39.872;2023-04-28T12:50:59;2.47;;;1.25;;
75682;SDS011;64295;44.772;39.872;2023-04-28T12:53:30;2.90;;;1.48;;
75682;SDS011;64295;44.772;39.872;2023-04-28T12:55:57;1.77;;;1.27;;
75682;SDS011;64295;44.772;39.872;2023-04-28T12:58:23;1.58;;;1.23;;
75682;SDS011;64295;44.772;39.872;2023-04-28T13:01:24;3.35;;;1.33;;
75682;SDS011;64295;44.772;39.872;2023-04-28T13:03:51;2.00;;;1.45;;
75682;SDS011;64295;44.772;39.872;2023-04-28T13:06:17;6.80;;;1.38;;
75682;SDS011;64295;44.772;39.872;2023-04-28T13:08:43;1.80;;;1.33;;
75682;SDS011;64295;44.772;39.872;2023-04-28T13:11:09;3.28;;;1.05;;
75682;SDS011;64295;44.772;39.872;2023-04-28T13:13:35;2.13;;;1.13;;
75682;SDS011;64295;44.772;39.872;2023-04-28T13:16:02;1.75;;;1.20;;
75682;SDS011;64295;44.772;39.872;2023-04-28T13:18:29;3.10;;;1.58;;
75682;SDS011;64295;44.772;39.872;2023-04-28T13:20:56;6.75;;;1.70;;
75682;SDS011;64295;44.772;39.872;2023-04-28T13:23:22;2.08;;;1.77;;
75682;SDS011;64295;44.772;39.872;2023-04-28T13:25:49;1.20;;;1.10;;
75682;SDS011;64295;44.772;39.872;2023-04-28T13:28:15;5.07;;;1.90;;
75682;SDS011;64295;44.772;39.872;2023-04-28T13:30:41;2.55;;;2.20;;
75682;SDS011;64295;44.772;39.872;2023-04-28T13:33:07;3.08;;;1.65;;
75682;SDS011;64295;44.772;39.872;2023-04-28T13:35:33;1.67;;;1.08;;
75682;SDS011;64295;44.772;39.872;2023-04-28T13:37:58;2.78;;;1.95;;
75682;SDS011;64295;44.772;39.872;2023-04-28T13:40:27;4.50;;;1.98;;
75682;SDS011;64295;44.772;39.872;2023-04-28T13:42:53;2.40;;;1.90;;
75682;SDS011;64295;44.772;39.872;2023-04-28T13:45:19;4.45;;;2.30;;
75682;SDS011;64295;44.772;39.872;2023-04-28T13:47:46;13.63;;;7.15;;
75682;SDS011;64295;44.772;39.872;2023-04-28T13:50:15;10.77;;;6.22;;
75682;SDS011;64295;44.772;39.872;2023-04-28T13:52:41;7.22;;;3.58;;
75682;SDS011;64295;44.772;39.872;2023-04-28T13:55:07;10.73;;;5.88;;
75682;SDS011;64295;44.772;39.872;2023-04-28T13:57:34;8.73;;;5.57;;
75682;SDS011;64295;44.772;39.872;2023-04-28T14:00:00;8.90;;;3.70;;
75682;SDS011;64295;44.772;39.872;2023-04-28T14:02:26;7.05;;;4.05;;
75682;SDS011;64295;44.772;39.872;2023-04-28T14:04:52;5.47;;;3.13;;
75682;SDS011;64295;44.772;39.872;2023-04-28T14:07:18;4.75;;;2.97;;
75682;SDS011;64295;44.772;39.872;2023-04-28T14:09:43;4.15;;;2.30;;
75682;SDS011;64295;44.772;39.872;2023-04-28T14:12:10;7.40;;;2.60;;
75682;SDS011;64295;44.772;39.872;2023-04-28T14:14:36;5.13;;;3.75;;
75682;SDS011;64295;44.772;39.872;2023-04-28T14:17:03;7.15;;;3.67;;
75682;SDS011;64295;44.772;39.872;2023-04-28T14:19:28;8.05;;;3.55;;
75682;SDS011;64295;44.772;39.872;2023-04-28T14:21:54;6.38;;;2.30;;
75682;SDS011;64295;44.772;39.872;2023-04-28T14:24:20;9.82;;;4.45;;
75682;SDS011;64295;44.772;39.872;2023-04-28T14:26:46;7.80;;;3.88;;
75682;SDS011;64295;44.772;39.872;2023-04-28T14:29:13;4.80;;;3.05;;
75682;SDS011;64295;44.772;39.872;2023-04-28T14:31:39;8.15;;;2.65;;
75682;SDS011;64295;44.772;39.872;2023-04-28T14:34:06;3.90;;;2.40;;
75682;SDS011;64295;44.772;39.872;2023-04-28T14:36:32;5.07;;;2.65;;
75682;SDS011;64295;44.772;39.872;2023-04-28T14:38:58;4.47;;;2.05;;
75682;SDS011;64295;44.772;39.872;2023-04-28T14:41:24;3.33;;;2.45;;
75682;SDS011;64295;44.772;39.872;2023-04-28T14:43:50;7.85;;;2.17;;
75682;SDS011;64295;44.772;39.872;2023-04-28T14:46:16;3.83;;;2.33;;
75682;SDS011;64295;44.772;39.872;2023-04-28T14:48:47;6.05;;;2.40;;
75682;SDS011;64295;44.772;39.872;2023-04-28T14:51:14;4.50;;;2.42;;
75682;SDS011;64295;44.772;39.872;2023-04-28T14:53:40;4.82;;;2.78;;
75682;SDS011;64295;44.772;39.872;2023-04-28T14:56:06;2.97;;;1.92;;
75682;SDS011;64295;44.772;39.872;2023-04-28T14:58:33;3.08;;;2.72;;
75682;SDS011;64295;44.772;39.872;2023-04-28T15:01:00;3.80;;;2.88;;
75682;SDS011;64295;44.772;39.872;2023-04-28T15:03:28;4.38;;;3.60;;
75682;SDS011;64295;44.772;39.872;2023-04-28T15:05:54;7.07;;;3.33;;
75682;SDS011;64295;44.772;39.872;2023-04-28T15:08:20;6.32;;;2.95;;
75682;SDS011;64295;44.772;39.872;2023-04-28T15:10:46;6.15;;;3.63;;